sensor_id;sensor_type;location;lat;lon;timestamp;P1;durP1;ratioP1;P2;durP2;ratioP2
72156;SDS011;60035;52.122;5.406;2023-07-02T00:02:04;11.02;;;3.47;;
72156;SDS011;60035;52.122;5.406;2023-07-02T00:04:30;13.30;;;3.63;;
72156;SDS011;60035;52.122;5.406;2023-07-02T00:06:57;13.60;;;4.03;;
72156;SDS011;60035;52.122;5.406;2023-07-02T00:09:24;12.68;;;4.00;;
72156;SDS011;60035;52.122;5.406;2023-07-02T00:11:50;15.30;;;3.88;;
72156;SDS011;60035;52.122;5.406;2023-07-02T00:14:17;12.50;;;3.63;;
72156;SDS011;60035;52.122;5.406;2023-07-02T00:16:44;11.13;;;4.00;;
72156;SDS011;60035;52.122;5.406;2023-07-02T00:19:15;13.43;;;4.15;;
72156;SDS011;60035;52.122;5.406;2023-07-02T00:21:42;11.88;;;4.10;;
72156;SDS011;60035;52.122;5.406;2023-07-02T00:24:09;13.70;;;4.50;;
72156;SDS011;60035;52.122;5.406;2023-07-02T00:26:36;14.75;;;4.18;;
72156;SDS011;60035;52.122;5.406;2023-07-02T00:29:08;9.90;;;4.30;;
72156;SDS011;60035;52.122;5.406;2023-07-02T00:31:35;12.13;;;4.40;;
72156;SDS011;60035;52.122;5.406;2023-07-02T00:34:02;11.45;;;4.43;;
72156;SDS011;60035;52.122;5.406;2023-07-02T00:36:30;10.60;;;4.18;;
72156;SDS011;60035;52.122;5.406;2023-07-02T00:38:57;12.00;;;4.15;;
72156;SDS011;60035;52.122;5.406;2023-07-02T00:41:24;12.27;;;4.30;;
72156;SDS011;60035;52.122;5.406;2023-07-02T00:43:53;14.88;;;4.57;;
72156;SDS011;60035;52.122;5.406;2023-07-02T00:46:21;11.68;;;4.15;;
72156;SDS011;60035;52.122;5.406;2023-07-02T00:51:26;9.52;;;3.50;;
72156;SDS011;60035;52.122;5.406;2023-07-02T00:53:54;9.80;;;3.33;;
72156;SDS011;60035;52.122;5.406;2023-07-02T00:56:22;13.35;;;3.75;;
72156;SDS011;60035;52.122;5.406;2023-07-02T00:58:52;13.10;;;4.18;;
72156;SDS011;60035;52.122;5.406;2023-07-02T01:01:21;11.25;;;4.07;;
72156;SDS011;60035;52.122;5.406;2023-07-02T01:06:24;13.95;;;4.22;;
72156;SDS011;60035;52.122;5.406;2023-07-02T01:08:53;10.32;;;4.30;;
72156;SDS011;60035;52.122;5.406;2023-07-02T01:11:22;10.85;;;3.88;;
72156;SDS011;60035;52.122;5.406;2023-07-02T01:14:01;17.20;;;4.43;;
72156;SDS011;60035;52.122;5.406;2023-07-02T01:16:30;12.88;;;4.47;;
72156;SDS011;60035;52.122;5.406;2023-07-02T01:19:04;11.30;;;4.13;;
72156;SDS011;60035;52.122;5.406;2023-07-02T01:21:34;11.27;;;4.00;;
72156;SDS011;60035;52.122;5.406;2023-07-02T01:24:01;11.35;;;3.60;;
72156;SDS011;60035;52.122;5.406;2023-07-02T01:26:31;13.52;;;4.18;;
72156;SDS011;60035;52.122;5.406;2023-07-02T01:29:11;13.93;;;4.15;;
72156;SDS011;60035;52.122;5.406;2023-07-02T01:31:39;13.52;;;4.22;;
72156;SDS011;60035;52.122;5.406;2023-07-02T01:34:06;11.32;;;4.40;;
72156;SDS011;60035;52.122;5.406;2023-07-02T01:36:34;17.23;;;3.90;;
72156;SDS011;60035;52.122;5.406;2023-07-02T01:39:01;12.57;;;4.22;;
72156;SDS011;60035;52.122;5.406;2023-07-02T01:41:28;14.98;;;4.72;;
72156;SDS011;60035;52.122;5.406;2023-07-02T01:43:54;11.77;;;4.18;;
72156;SDS011;60035;52.122;5.406;2023-07-02T01:46:21;16.50;;;3.95;;
72156;SDS011;60035;52.122;5.406;2023-07-02T01:48:47;15.50;;;4.47;;
72156;SDS011;60035;52.122;5.406;2023-07-02T01:51:14;15.73;;;4.70;;
72156;SDS011;60035;52.122;5.406;2023-07-02T01:53:40;12.55;;;4.20;;
72156;SDS011;60035;52.122;5.406;2023-07-02T01:56:07;13.13;;;4.55;;
72156;SDS011;60035;52.122;5.406;2023-07-02T01:58:34;13.25;;;4.55;;
72156;SDS011;60035;52.122;5.406;2023-07-02T02:01:00;14.52;;;3.92;;
72156;SDS011;60035;52.122;5.406;2023-07-02T02:03:27;15.10;;;4.53;;
72156;SDS011;60035;52.122;5.406;2023-07-02T02:05:53;19.25;;;4.68;;
72156;SDS011;60035;52.122;5.406;2023-07-02T02:08:20;20.55;;;5.40;;
72156;SDS011;60035;52.122;5.406;2023-07-02T02:10:46;14.00;;;4.40;;
72156;SDS011;60035;52.122;5.406;2023-07-02T02:13:13;15.18;;;4.80;;
72156;SDS011;60035;52.122;5.406;2023-07-02T02:15:40;13.95;;;4.28;;
72156;SDS011;60035;52.122;5.406;2023-07-02T02:18:07;14.73;;;4.65;;
72156;SDS011;60035;52.122;5.406;2023-07-02T02:20:34;16.83;;;4.85;;
72156;SDS011;60035;52.122;5.406;2023-07-02T02:23:00;14.18;;;4.53;;
72156;SDS011;60035;52.122;5.406;2023-07-02T02:25:27;13.70;;;4.95;;
72156;SDS011;60035;52.122;5.406;2023-07-02T02:27:53;14.57;;;4.65;;
72156;SDS011;60035;52.122;5.406;2023-07-02T02:30:20;15.60;;;4.70;;
72156;SDS011;60035;52.122;5.406;2023-07-02T02:32:46;15.10;;;4.55;;
72156;SDS011;60035;52.122;5.406;2023-07-02T02:35:13;15.20;;;4.60;;
72156;SDS011;60035;52.122;5.406;2023-07-02T02:37:40;16.85;;;4.85;;
72156;SDS011;60035;52.122;5.406;2023-07-02T02:40:07;14.98;;;4.55;;
72156;SDS011;60035;52.122;5.406;2023-07-02T02:42:35;18.10;;;5.10;;
72156;SDS011;60035;52.122;5.406;2023-07-02T02:45:03;16.17;;;5.07;;
72156;SDS011;60035;52.122;5.406;2023-07-02T02:47:29;15.68;;;4.70;;
72156;SDS011;60035;52.122;5.406;2023-07-02T02:49:56;14.82;;;5.20;;
72156;SDS011;60035;52.122;5.406;2023-07-02T02:52:22;15.75;;;4.70;;
72156;SDS011;60035;52.122;5.406;2023-07-02T02:54:49;17.33;;;4.72;;
72156;SDS011;60035;52.122;5.406;2023-07-02T02:57:19;19.40;;;5.78;;
72156;SDS011;60035;52.122;5.406;2023-07-02T02:59:45;15.23;;;5.40;;
72156;SDS011;60035;52.122;5.406;2023-07-02T03:02:12;15.75;;;4.93;;
72156;SDS011;60035;52.122;5.406;2023-07-02T03:04:39;17.08;;;5.13;;
72156;SDS011;60035;52.122;5.406;2023-07-02T03:07:07;16.42;;;5.07;;
72156;SDS011;60035;52.122;5.406;2023-07-02T03:09:33;17.83;;;4.97;;
72156;SDS011;60035;52.122;5.406;2023-07-02T03:12:00;18.98;;;5.32;;
72156;SDS011;60035;52.122;5.406;2023-07-02T03:14:27;19.50;;;4.78;;
72156;SDS011;60035;52.122;5.406;2023-07-02T03:16:53;17.95;;;5.38;;
72156;SDS011;60035;52.122;5.406;2023-07-02T03:19:21;17.17;;;5.55;;
72156;SDS011;60035;52.122;5.406;2023-07-02T03:21:47;19.75;;;5.60;;
72156;SDS011;60035;52.122;5.406;2023-07-02T03:24:14;15.80;;;5.05;;
72156;SDS011;60035;52.122;5.406;2023-07-02T03:26:40;20.30;;;5.70;;
72156;SDS011;60035;52.122;5.406;2023-07-02T03:29:07;13.82;;;4.88;;
72156;SDS011;60035;52.122;5.406;2023-07-02T03:31:33;17.08;;;4.90;;
72156;SDS011;60035;52.122;5.406;2023-07-02T03:34:09;14.45;;;4.72;;
72156;SDS011;60035;52.122;5.406;2023-07-02T03:36:37;20.10;;;5.25;;
72156;SDS011;60035;52.122;5.406;2023-07-02T03:39:04;18.02;;;5.28;;
72156;SDS011;60035;52.122;5.406;2023-07-02T03:41:35;17.83;;;5.63;;
72156;SDS011;60035;52.122;5.406;2023-07-02T03:44:01;17.30;;;5.20;;
72156;SDS011;60035;52.122;5.406;2023-07-02T03:46:28;18.63;;;5.38;;
72156;SDS011;60035;52.122;5.406;2023-07-02T03:48:54;19.63;;;5.80;;
72156;SDS011;60035;52.122;5.406;2023-07-02T03:51:21;17.27;;;4.82;;
72156;SDS011;60035;52.122;5.406;2023-07-02T03:53:47;17.63;;;5.30;;
72156;SDS011;60035;52.122;5.406;2023-07-02T03:56:14;18.73;;;5.47;;
72156;SDS011;60035;52.122;5.406;2023-07-02T03:58:41;17.58;;;5.53;;
72156;SDS011;60035;52.122;5.406;2023-07-02T04:01:07;15.75;;;5.07;;
72156;SDS011;60035;52.122;5.406;2023-07-02T04:03:34;15.55;;;5.63;;
72156;SDS011;60035;52.122;5.406;2023-07-02T04:06:00;18.63;;;5.57;;
72156;SDS011;60035;52.122;5.406;2023-07-02T04:08:27;19.70;;;5.10;;
72156;SDS011;60035;52.122;5.406;2023-07-02T04:10:56;16.95;;;5.40;;
72156;SDS011;60035;52.122;5.406;2023-07-02T04:13:23;15.63;;;5.30;;
72156;SDS011;60035;52.122;5.406;2023-07-02T04:15:50;17.63;;;4.90;;
72156;SDS011;60035;52.122;5.406;2023-07-02T04:18:16;24.00;;;5.38;;
72156;SDS011;60035;52.122;5.406;2023-07-02T04:20:43;16.67;;;5.25;;
72156;SDS011;60035;52.122;5.406;2023-07-02T04:23:09;21.55;;;6.13;;
72156;SDS011;60035;52.122;5.406;2023-07-02T04:25:36;18.60;;;5.30;;
72156;SDS011;60035;52.122;5.406;2023-07-02T04:28:22;19.55;;;5.63;;
72156;SDS011;60035;52.122;5.406;2023-07-02T04:30:49;19.23;;;5.45;;
72156;SDS011;60035;52.122;5.406;2023-07-02T04:33:17;18.00;;;5.43;;
72156;SDS011;60035;52.122;5.406;2023-07-02T04:35:44;15.93;;;4.88;;
72156;SDS011;60035;52.122;5.406;2023-07-02T04:38:11;16.35;;;5.28;;
72156;SDS011;60035;52.122;5.406;2023-07-02T04:40:38;20.88;;;5.78;;
72156;SDS011;60035;52.122;5.406;2023-07-02T04:43:05;20.70;;;5.68;;
72156;SDS011;60035;52.122;5.406;2023-07-02T04:45:32;22.00;;;5.50;;
72156;SDS011;60035;52.122;5.406;2023-07-02T04:48:03;21.13;;;5.53;;
72156;SDS011;60035;52.122;5.406;2023-07-02T04:50:30;19.23;;;5.60;;
72156;SDS011;60035;52.122;5.406;2023-07-02T04:52:56;15.77;;;5.50;;
72156;SDS011;60035;52.122;5.406;2023-07-02T04:55:23;13.95;;;5.00;;
72156;SDS011;60035;52.122;5.406;2023-07-02T04:57:49;19.00;;;5.88;;
72156;SDS011;60035;52.122;5.406;2023-07-02T05:00:16;20.33;;;5.85;;
72156;SDS011;60035;52.122;5.406;2023-07-02T05:02:43;19.95;;;5.38;;
72156;SDS011;60035;52.122;5.406;2023-07-02T05:05:09;17.08;;;5.47;;
72156;SDS011;60035;52.122;5.406;2023-07-02T05:07:36;18.50;;;5.35;;
72156;SDS011;60035;52.122;5.406;2023-07-02T05:10:03;18.92;;;5.82;;
72156;SDS011;60035;52.122;5.406;2023-07-02T05:12:30;16.50;;;5.00;;
72156;SDS011;60035;52.122;5.406;2023-07-02T05:14:56;16.33;;;5.35;;
72156;SDS011;60035;52.122;5.406;2023-07-02T05:17:23;20.88;;;5.50;;
72156;SDS011;60035;52.122;5.406;2023-07-02T05:19:49;20.08;;;4.88;;
72156;SDS011;60035;52.122;5.406;2023-07-02T05:22:16;16.58;;;5.10;;
72156;SDS011;60035;52.122;5.406;2023-07-02T05:24:45;17.92;;;4.95;;
72156;SDS011;60035;52.122;5.406;2023-07-02T05:27:12;17.95;;;5.63;;
72156;SDS011;60035;52.122;5.406;2023-07-02T05:29:39;16.77;;;5.28;;
72156;SDS011;60035;52.122;5.406;2023-07-02T05:32:05;18.00;;;5.35;;
72156;SDS011;60035;52.122;5.406;2023-07-02T05:34:33;20.40;;;6.18;;
72156;SDS011;60035;52.122;5.406;2023-07-02T05:37:00;21.27;;;5.47;;
72156;SDS011;60035;52.122;5.406;2023-07-02T05:39:26;18.10;;;5.60;;
72156;SDS011;60035;52.122;5.406;2023-07-02T05:41:53;15.70;;;4.97;;
72156;SDS011;60035;52.122;5.406;2023-07-02T05:44:20;18.73;;;5.38;;
72156;SDS011;60035;52.122;5.406;2023-07-02T05:46:46;20.58;;;6.00;;
72156;SDS011;60035;52.122;5.406;2023-07-02T05:49:13;16.63;;;5.72;;
72156;SDS011;60035;52.122;5.406;2023-07-02T05:51:39;21.85;;;5.88;;
72156;SDS011;60035;52.122;5.406;2023-07-02T05:54:06;16.25;;;5.32;;
72156;SDS011;60035;52.122;5.406;2023-07-02T05:56:33;19.15;;;5.00;;
72156;SDS011;60035;52.122;5.406;2023-07-02T05:58:59;15.63;;;4.60;;
72156;SDS011;60035;52.122;5.406;2023-07-02T06:01:26;16.63;;;5.53;;
72156;SDS011;60035;52.122;5.406;2023-07-02T06:04:00;18.75;;;5.35;;
72156;SDS011;60035;52.122;5.406;2023-07-02T06:06:28;15.10;;;5.20;;
72156;SDS011;60035;52.122;5.406;2023-07-02T06:08:54;20.02;;;5.20;;
72156;SDS011;60035;52.122;5.406;2023-07-02T06:11:21;23.85;;;5.18;;
72156;SDS011;60035;52.122;5.406;2023-07-02T06:13:47;16.67;;;5.03;;
72156;SDS011;60035;52.122;5.406;2023-07-02T06:16:14;15.52;;;4.70;;
72156;SDS011;60035;52.122;5.406;2023-07-02T06:18:40;18.10;;;5.55;;
72156;SDS011;60035;52.122;5.406;2023-07-02T06:21:07;18.05;;;4.95;;
72156;SDS011;60035;52.122;5.406;2023-07-02T06:23:40;14.80;;;4.25;;
72156;SDS011;60035;52.122;5.406;2023-07-02T06:26:08;18.35;;;4.30;;
72156;SDS011;60035;52.122;5.406;2023-07-02T06:28:35;18.27;;;4.30;;
72156;SDS011;60035;52.122;5.406;2023-07-02T06:31:01;16.60;;;4.20;;
72156;SDS011;60035;52.122;5.406;2023-07-02T06:33:28;17.45;;;4.00;;
72156;SDS011;60035;52.122;5.406;2023-07-02T06:35:55;16.98;;;4.80;;
72156;SDS011;60035;52.122;5.406;2023-07-02T06:38:21;15.90;;;4.38;;
72156;SDS011;60035;52.122;5.406;2023-07-02T06:40:48;19.90;;;4.15;;
72156;SDS011;60035;52.122;5.406;2023-07-02T06:43:15;14.55;;;4.43;;
72156;SDS011;60035;52.122;5.406;2023-07-02T06:45:41;16.80;;;4.13;;
72156;SDS011;60035;52.122;5.406;2023-07-02T06:48:08;23.00;;;4.70;;
72156;SDS011;60035;52.122;5.406;2023-07-02T06:50:34;12.52;;;3.85;;
72156;SDS011;60035;52.122;5.406;2023-07-02T06:53:01;14.18;;;3.88;;
72156;SDS011;60035;52.122;5.406;2023-07-02T06:55:28;14.52;;;3.97;;
72156;SDS011;60035;52.122;5.406;2023-07-02T06:57:54;16.98;;;3.80;;
72156;SDS011;60035;52.122;5.406;2023-07-02T07:00:20;18.45;;;4.18;;
72156;SDS011;60035;52.122;5.406;2023-07-02T07:02:47;16.15;;;4.55;;
72156;SDS011;60035;52.122;5.406;2023-07-02T07:05:14;16.75;;;3.67;;
72156;SDS011;60035;52.122;5.406;2023-07-02T07:07:41;13.48;;;3.60;;
72156;SDS011;60035;52.122;5.406;2023-07-02T07:10:07;14.95;;;3.72;;
72156;SDS011;60035;52.122;5.406;2023-07-02T07:12:34;13.40;;;3.95;;
72156;SDS011;60035;52.122;5.406;2023-07-02T07:15:00;11.40;;;3.40;;
72156;SDS011;60035;52.122;5.406;2023-07-02T07:17:27;18.13;;;3.95;;
72156;SDS011;60035;52.122;5.406;2023-07-02T07:19:53;15.45;;;3.72;;
72156;SDS011;60035;52.122;5.406;2023-07-02T07:22:20;13.50;;;3.47;;
72156;SDS011;60035;52.122;5.406;2023-07-02T07:24:47;14.38;;;3.60;;
72156;SDS011;60035;52.122;5.406;2023-07-02T07:27:13;14.68;;;4.03;;
72156;SDS011;60035;52.122;5.406;2023-07-02T07:29:40;12.95;;;3.83;;
72156;SDS011;60035;52.122;5.406;2023-07-02T07:32:06;9.88;;;2.97;;
72156;SDS011;60035;52.122;5.406;2023-07-02T07:34:33;15.27;;;3.53;;
72156;SDS011;60035;52.122;5.406;2023-07-02T07:37:00;11.25;;;3.08;;
72156;SDS011;60035;52.122;5.406;2023-07-02T07:39:26;16.10;;;3.35;;
72156;SDS011;60035;52.122;5.406;2023-07-02T07:41:53;13.43;;;3.88;;
72156;SDS011;60035;52.122;5.406;2023-07-02T07:44:19;13.55;;;3.22;;
72156;SDS011;60035;52.122;5.406;2023-07-02T07:46:46;11.52;;;3.00;;
72156;SDS011;60035;52.122;5.406;2023-07-02T07:49:12;13.40;;;3.13;;
72156;SDS011;60035;52.122;5.406;2023-07-02T07:51:39;11.18;;;3.10;;
72156;SDS011;60035;52.122;5.406;2023-07-02T07:54:06;13.63;;;3.20;;
72156;SDS011;60035;52.122;5.406;2023-07-02T07:56:32;15.15;;;2.80;;
72156;SDS011;60035;52.122;5.406;2023-07-02T07:58:59;12.30;;;3.50;;
72156;SDS011;60035;52.122;5.406;2023-07-02T08:01:25;13.60;;;3.40;;
72156;SDS011;60035;52.122;5.406;2023-07-02T08:03:53;9.70;;;3.13;;
72156;SDS011;60035;52.122;5.406;2023-07-02T08:06:19;11.50;;;3.13;;
72156;SDS011;60035;52.122;5.406;2023-07-02T08:08:46;11.80;;;3.10;;
72156;SDS011;60035;52.122;5.406;2023-07-02T08:11:12;10.05;;;2.90;;
72156;SDS011;60035;52.122;5.406;2023-07-02T08:13:39;12.50;;;3.95;;
72156;SDS011;60035;52.122;5.406;2023-07-02T08:16:06;12.90;;;3.30;;
72156;SDS011;60035;52.122;5.406;2023-07-02T08:18:32;10.07;;;3.25;;
72156;SDS011;60035;52.122;5.406;2023-07-02T08:20:59;10.27;;;3.00;;
72156;SDS011;60035;52.122;5.406;2023-07-02T08:23:25;9.45;;;2.90;;
72156;SDS011;60035;52.122;5.406;2023-07-02T08:25:52;8.98;;;3.03;;
72156;SDS011;60035;52.122;5.406;2023-07-02T08:28:18;13.75;;;3.63;;
72156;SDS011;60035;52.122;5.406;2023-07-02T08:30:45;10.48;;;3.35;;
72156;SDS011;60035;52.122;5.406;2023-07-02T08:33:11;11.10;;;2.80;;
72156;SDS011;60035;52.122;5.406;2023-07-02T08:35:38;11.20;;;2.72;;
72156;SDS011;60035;52.122;5.406;2023-07-02T08:38:04;9.73;;;2.83;;
72156;SDS011;60035;52.122;5.406;2023-07-02T08:40:31;13.35;;;3.60;;
72156;SDS011;60035;52.122;5.406;2023-07-02T08:42:57;11.20;;;2.95;;
72156;SDS011;60035;52.122;5.406;2023-07-02T08:45:27;8.45;;;2.40;;
72156;SDS011;60035;52.122;5.406;2023-07-02T08:47:54;10.65;;;2.97;;
72156;SDS011;60035;52.122;5.406;2023-07-02T08:50:22;8.93;;;2.53;;
72156;SDS011;60035;52.122;5.406;2023-07-02T08:52:49;10.05;;;2.60;;
72156;SDS011;60035;52.122;5.406;2023-07-02T08:55:16;14.35;;;3.28;;
72156;SDS011;60035;52.122;5.406;2023-07-02T08:57:47;14.23;;;3.65;;
72156;SDS011;60035;52.122;5.406;2023-07-02T09:00:15;10.80;;;3.33;;
72156;SDS011;60035;52.122;5.406;2023-07-02T09:02:42;11.23;;;3.30;;
72156;SDS011;60035;52.122;5.406;2023-07-02T09:05:09;8.90;;;2.80;;
72156;SDS011;60035;52.122;5.406;2023-07-02T09:07:49;10.68;;;3.38;;
72156;SDS011;60035;52.122;5.406;2023-07-02T09:10:29;10.32;;;2.63;;
72156;SDS011;60035;52.122;5.406;2023-07-02T09:13:04;10.15;;;3.03;;
72156;SDS011;60035;52.122;5.406;2023-07-02T09:15:35;10.48;;;2.75;;
72156;SDS011;60035;52.122;5.406;2023-07-02T09:18:14;14.10;;;2.85;;
72156;SDS011;60035;52.122;5.406;2023-07-02T09:20:40;12.20;;;3.53;;
72156;SDS011;60035;52.122;5.406;2023-07-02T09:23:06;13.45;;;2.80;;
72156;SDS011;60035;52.122;5.406;2023-07-02T09:25:34;9.32;;;2.53;;
72156;SDS011;60035;52.122;5.406;2023-07-02T09:28:13;6.57;;;2.05;;
72156;SDS011;60035;52.122;5.406;2023-07-02T09:30:48;9.38;;;1.92;;
72156;SDS011;60035;52.122;5.406;2023-07-02T09:33:17;7.00;;;2.13;;
72156;SDS011;60035;52.122;5.406;2023-07-02T09:35:44;9.15;;;2.17;;
72156;SDS011;60035;52.122;5.406;2023-07-02T09:38:11;14.23;;;2.20;;
72156;SDS011;60035;52.122;5.406;2023-07-02T09:40:42;7.80;;;2.15;;
72156;SDS011;60035;52.122;5.406;2023-07-02T09:43:13;8.00;;;2.00;;
72156;SDS011;60035;52.122;5.406;2023-07-02T09:45:45;6.32;;;1.83;;
72156;SDS011;60035;52.122;5.406;2023-07-02T09:48:17;7.22;;;2.05;;
72156;SDS011;60035;52.122;5.406;2023-07-02T09:50:44;8.10;;;1.75;;
72156;SDS011;60035;52.122;5.406;2023-07-02T09:53:13;8.75;;;2.28;;
72156;SDS011;60035;52.122;5.406;2023-07-02T09:55:43;7.65;;;1.80;;
72156;SDS011;60035;52.122;5.406;2023-07-02T09:58:10;7.03;;;1.88;;
72156;SDS011;60035;52.122;5.406;2023-07-02T10:00:40;7.13;;;1.88;;
72156;SDS011;60035;52.122;5.406;2023-07-02T10:03:07;5.55;;;1.70;;
72156;SDS011;60035;52.122;5.406;2023-07-02T10:05:34;5.22;;;1.90;;
72156;SDS011;60035;52.122;5.406;2023-07-02T10:08:14;7.13;;;1.80;;
72156;SDS011;60035;52.122;5.406;2023-07-02T10:13:10;6.35;;;1.85;;
72156;SDS011;60035;52.122;5.406;2023-07-02T10:15:37;7.60;;;1.75;;
72156;SDS011;60035;52.122;5.406;2023-07-02T10:18:05;10.18;;;2.03;;
72156;SDS011;60035;52.122;5.406;2023-07-02T10:20:33;5.25;;;1.40;;
72156;SDS011;60035;52.122;5.406;2023-07-02T10:23:04;5.20;;;1.60;;
72156;SDS011;60035;52.122;5.406;2023-07-02T10:25:33;7.75;;;2.17;;
72156;SDS011;60035;52.122;5.406;2023-07-02T10:28:24;8.02;;;2.00;;
72156;SDS011;60035;52.122;5.406;2023-07-02T10:30:53;6.28;;;1.60;;
72156;SDS011;60035;52.122;5.406;2023-07-02T10:33:20;6.95;;;2.00;;
72156;SDS011;60035;52.122;5.406;2023-07-02T10:35:47;6.18;;;1.60;;
72156;SDS011;60035;52.122;5.406;2023-07-02T10:38:20;6.50;;;1.90;;
72156;SDS011;60035;52.122;5.406;2023-07-02T10:40:53;7.28;;;1.80;;
72156;SDS011;60035;52.122;5.406;2023-07-02T11:51:17;8.32;;;2.55;;
72156;SDS011;60035;52.122;5.406;2023-07-02T11:53:44;7.88;;;2.50;;
72156;SDS011;60035;52.122;5.406;2023-07-02T11:56:10;7.57;;;2.47;;
72156;SDS011;60035;52.122;5.406;2023-07-02T11:58:41;9.82;;;2.50;;
72156;SDS011;60035;52.122;5.406;2023-07-02T12:01:08;8.32;;;2.63;;
72156;SDS011;60035;52.122;5.406;2023-07-02T12:03:34;7.70;;;2.40;;
72156;SDS011;60035;52.122;5.406;2023-07-02T12:06:01;6.38;;;2.08;;
72156;SDS011;60035;52.122;5.406;2023-07-02T12:08:28;9.38;;;2.30;;
72156;SDS011;60035;52.122;5.406;2023-07-02T12:10:54;7.82;;;2.13;;
72156;SDS011;60035;52.122;5.406;2023-07-02T12:13:21;8.82;;;2.78;;
72156;SDS011;60035;52.122;5.406;2023-07-02T12:15:47;9.50;;;2.35;;
72156;SDS011;60035;52.122;5.406;2023-07-02T12:18:15;8.75;;;2.50;;
72156;SDS011;60035;52.122;5.406;2023-07-02T12:20:42;6.75;;;1.90;;
72156;SDS011;60035;52.122;5.406;2023-07-02T12:23:09;9.60;;;2.80;;
72156;SDS011;60035;52.122;5.406;2023-07-02T12:25:37;7.05;;;2.25;;
72156;SDS011;60035;52.122;5.406;2023-07-02T12:28:04;7.72;;;2.35;;
72156;SDS011;60035;52.122;5.406;2023-07-02T12:30:31;9.27;;;2.17;;
72156;SDS011;60035;52.122;5.406;2023-07-02T12:33:01;8.10;;;2.67;;
72156;SDS011;60035;52.122;5.406;2023-07-02T12:35:28;7.40;;;2.55;;
72156;SDS011;60035;52.122;5.406;2023-07-02T12:37:55;9.68;;;2.58;;
72156;SDS011;60035;52.122;5.406;2023-07-02T12:40:21;9.30;;;2.28;;
72156;SDS011;60035;52.122;5.406;2023-07-02T12:42:48;8.57;;;2.60;;
72156;SDS011;60035;52.122;5.406;2023-07-02T12:45:17;9.35;;;2.50;;
72156;SDS011;60035;52.122;5.406;2023-07-02T12:47:47;7.85;;;2.50;;
72156;SDS011;60035;52.122;5.406;2023-07-02T12:50:14;10.20;;;2.63;;
72156;SDS011;60035;52.122;5.406;2023-07-02T12:52:40;7.93;;;2.45;;
72156;SDS011;60035;52.122;5.406;2023-07-02T12:55:07;8.43;;;2.53;;
72156;SDS011;60035;52.122;5.406;2023-07-02T12:57:34;8.02;;;2.67;;
72156;SDS011;60035;52.122;5.406;2023-07-02T13:00:01;11.75;;;3.30;;
72156;SDS011;60035;52.122;5.406;2023-07-02T13:02:28;8.43;;;2.70;;
72156;SDS011;60035;52.122;5.406;2023-07-02T13:04:54;9.27;;;2.90;;
72156;SDS011;60035;52.122;5.406;2023-07-02T13:07:21;8.52;;;2.47;;
72156;SDS011;60035;52.122;5.406;2023-07-02T13:09:50;7.40;;;2.60;;
72156;SDS011;60035;52.122;5.406;2023-07-02T13:12:16;11.65;;;3.30;;
72156;SDS011;60035;52.122;5.406;2023-07-02T13:14:44;8.27;;;2.90;;
72156;SDS011;60035;52.122;5.406;2023-07-02T13:17:10;9.85;;;3.13;;
72156;SDS011;60035;52.122;5.406;2023-07-02T13:19:37;8.80;;;2.80;;
72156;SDS011;60035;52.122;5.406;2023-07-02T13:22:04;9.13;;;2.58;;
72156;SDS011;60035;52.122;5.406;2023-07-02T13:24:33;11.02;;;2.58;;
72156;SDS011;60035;52.122;5.406;2023-07-02T13:27:04;8.07;;;2.45;;
72156;SDS011;60035;52.122;5.406;2023-07-02T13:29:35;8.35;;;2.88;;
72156;SDS011;60035;52.122;5.406;2023-07-02T13:32:02;8.60;;;2.45;;
72156;SDS011;60035;52.122;5.406;2023-07-02T13:34:29;8.88;;;2.67;;
72156;SDS011;60035;52.122;5.406;2023-07-02T13:36:56;8.68;;;2.65;;
72156;SDS011;60035;52.122;5.406;2023-07-02T13:39:22;9.43;;;2.70;;
72156;SDS011;60035;52.122;5.406;2023-07-02T13:41:49;10.85;;;3.38;;
72156;SDS011;60035;52.122;5.406;2023-07-02T13:44:16;8.85;;;2.67;;
72156;SDS011;60035;52.122;5.406;2023-07-02T13:46:43;9.43;;;3.00;;
72156;SDS011;60035;52.122;5.406;2023-07-02T13:49:11;8.20;;;2.40;;
72156;SDS011;60035;52.122;5.406;2023-07-02T13:51:37;8.35;;;2.63;;
72156;SDS011;60035;52.122;5.406;2023-07-02T13:54:04;7.88;;;2.60;;
72156;SDS011;60035;52.122;5.406;2023-07-02T13:56:31;8.55;;;2.55;;
72156;SDS011;60035;52.122;5.406;2023-07-02T14:01:24;7.63;;;2.65;;
72156;SDS011;60035;52.122;5.406;2023-07-02T14:03:50;9.43;;;2.65;;
72156;SDS011;60035;52.122;5.406;2023-07-02T14:06:18;9.13;;;2.63;;
72156;SDS011;60035;52.122;5.406;2023-07-02T14:08:45;9.13;;;2.75;;
72156;SDS011;60035;52.122;5.406;2023-07-02T14:11:14;11.65;;;3.10;;
72156;SDS011;60035;52.122;5.406;2023-07-02T14:13:41;7.38;;;2.75;;
72156;SDS011;60035;52.122;5.406;2023-07-02T14:16:07;10.65;;;3.28;;
72156;SDS011;60035;52.122;5.406;2023-07-02T14:18:34;7.07;;;2.65;;
72156;SDS011;60035;52.122;5.406;2023-07-02T14:21:00;9.50;;;2.85;;
72156;SDS011;60035;52.122;5.406;2023-07-02T14:23:27;9.77;;;3.15;;
72156;SDS011;60035;52.122;5.406;2023-07-02T14:25:54;8.57;;;2.97;;
72156;SDS011;60035;52.122;5.406;2023-07-02T14:28:21;9.77;;;3.53;;
72156;SDS011;60035;52.122;5.406;2023-07-02T14:30:47;9.77;;;3.45;;
72156;SDS011;60035;52.122;5.406;2023-07-02T14:33:14;8.55;;;2.75;;
72156;SDS011;60035;52.122;5.406;2023-07-02T14:35:41;8.98;;;3.20;;
72156;SDS011;60035;52.122;5.406;2023-07-02T14:38:07;13.23;;;3.60;;
72156;SDS011;60035;52.122;5.406;2023-07-02T14:40:34;9.93;;;3.58;;
72156;SDS011;60035;52.122;5.406;2023-07-02T14:43:00;11.32;;;3.40;;
72156;SDS011;60035;52.122;5.406;2023-07-02T14:45:30;9.80;;;3.40;;
72156;SDS011;60035;52.122;5.406;2023-07-02T14:47:57;10.25;;;3.30;;
72156;SDS011;60035;52.122;5.406;2023-07-02T14:50:26;10.35;;;3.95;;
72156;SDS011;60035;52.122;5.406;2023-07-02T14:52:54;9.15;;;3.22;;
72156;SDS011;60035;52.122;5.406;2023-07-02T14:55:20;9.27;;;2.78;;
72156;SDS011;60035;52.122;5.406;2023-07-02T14:57:47;9.43;;;2.92;;
72156;SDS011;60035;52.122;5.406;2023-07-02T15:00:13;8.18;;;2.75;;
72156;SDS011;60035;52.122;5.406;2023-07-02T15:02:40;10.23;;;2.72;;
72156;SDS011;60035;52.122;5.406;2023-07-02T15:05:07;10.15;;;3.00;;
72156;SDS011;60035;52.122;5.406;2023-07-02T15:07:34;8.40;;;2.80;;
72156;SDS011;60035;52.122;5.406;2023-07-02T15:10:01;9.10;;;2.80;;
72156;SDS011;60035;52.122;5.406;2023-07-02T15:12:34;9.55;;;2.85;;
72156;SDS011;60035;52.122;5.406;2023-07-02T15:15:00;10.63;;;3.15;;
72156;SDS011;60035;52.122;5.406;2023-07-02T15:17:27;8.30;;;2.70;;
72156;SDS011;60035;52.122;5.406;2023-07-02T15:19:53;8.98;;;2.65;;
72156;SDS011;60035;52.122;5.406;2023-07-02T15:22:20;7.82;;;2.53;;
72156;SDS011;60035;52.122;5.406;2023-07-02T15:24:46;8.43;;;2.50;;
72156;SDS011;60035;52.122;5.406;2023-07-02T15:27:13;9.45;;;2.60;;
72156;SDS011;60035;52.122;5.406;2023-07-02T15:29:39;7.47;;;2.53;;
72156;SDS011;60035;52.122;5.406;2023-07-02T15:32:06;7.32;;;2.35;;
72156;SDS011;60035;52.122;5.406;2023-07-02T15:34:32;7.53;;;2.45;;
72156;SDS011;60035;52.122;5.406;2023-07-02T15:36:59;5.97;;;2.40;;
72156;SDS011;60035;52.122;5.406;2023-07-02T15:39:26;7.10;;;2.50;;
72156;SDS011;60035;52.122;5.406;2023-07-02T15:41:59;7.40;;;2.45;;
72156;SDS011;60035;52.122;5.406;2023-07-02T15:44:26;10.32;;;2.28;;
72156;SDS011;60035;52.122;5.406;2023-07-02T15:46:53;7.57;;;2.53;;
72156;SDS011;60035;52.122;5.406;2023-07-02T15:49:21;8.88;;;2.72;;
72156;SDS011;60035;52.122;5.406;2023-07-02T15:51:48;8.50;;;2.80;;
72156;SDS011;60035;52.122;5.406;2023-07-02T15:54:14;9.07;;;2.53;;
72156;SDS011;60035;52.122;5.406;2023-07-02T15:56:41;10.50;;;3.30;;
72156;SDS011;60035;52.122;5.406;2023-07-02T15:59:07;10.43;;;2.50;;